space.ca alexa rank chart, space.ca alexa rank daily changes

space.ca alexa rank chart, space.ca alexa rank daily changes

space.ca
Actual rank:
250 637

RANK HISTORY

Date Rank Diff
2018/06/20 250 637 +69 291
2018/06/18 181 346 -31 332
2018/06/17 212 678 -104 979
2018/06/16 317 657 -428 605
2018/06/15 746 262 +330 528
2018/06/14 415 734 +216 171
2018/06/13 199 563 +10 221
2018/06/12 189 342 -88 671
2018/06/11 278 013 +40 133
2018/06/10 237 880 -332 747
2018/06/09 570 627 +334 693
2018/06/08 235 934 -74 810
2018/06/07 310 744 +85 740
2018/06/06 225 004 -92
2018/06/04 225 096 +38 722
2018/06/03 186 374 -132 029
2018/06/02 318 403 +39 605
2018/06/01 278 798 -146 288
2018/05/31 425 086 +52 050
2018/05/30 373 036 +93 797
2018/05/29 279 239 -145 935
2018/05/28 425 174 +265 891
2018/05/27 159 283 -66 997
2018/05/26 226 280 -65 173
2018/05/25 291 453 +172 048
2018/05/24 119 405 -333 739
2018/05/23 453 144 +255 637
2018/05/22 197 507 +36 029
2018/05/21 161 478 -149 678
2018/05/20 311 156 +153 189
2018/05/19 157 967 -138 318
2018/05/18 296 285 +23 102
2018/05/17 273 183 -225 237
2018/05/16 498 420 +365 755
2018/05/15 132 665 -75 178
2018/05/14 207 843 +90 482
2018/05/13 117 361 -125 828
2018/05/12 243 189 -88 063
2018/05/11 331 252 +110 980
2018/05/10 220 272 -141 222
2018/05/09 361 494 +107 988
2018/05/08 253 506 +81 623
2018/05/07 171 883 -11 229
2018/05/06 183 112 -56 597
2018/05/05 239 709 -401 173
2018/05/04 640 882 +400 780
2018/05/03 240 102 +9 642
2018/05/02 230 460 +29 965
2018/05/01 200 495 -156 329
2018/04/30 356 824 +264 742
2018/04/29 92 082 -182 793
2018/04/28 274 875 +56 683
2018/04/27 218 192 -7 879
2018/04/26 226 071 +64 380
2018/04/25 161 691 -2 215
2018/04/24 163 906 -54 286
2018/04/23 218 192 -225
2018/04/22 218 417 +14 491
2018/04/21 203 926

WIDGET FOR YOUR SITE

DOMAINS WITH THE NEAREST RANK

Domain Rank
photonics.com 250 632
khmerchords.com 250 633
laopinionsemanario.com.ar 250 634
totalsheetmusic.com 250 635
web-school.in 250 636
space.ca 250 637
bookmybai.com 250 638
chrono24.com.hr 250 639
miratext.ru 250 640
mediastorehouse.com 250 641
smile.com.bd 250 642

DOMAINS WITH THE NEAREST RANK BY TLD .ca

Domain Rank
gerad.ca 250 174
eservicecorp.ca 250 276
aviva.ca 250 413
decathlon.ca 250 471
acadiau.ca 250 517
space.ca 250 637
hrpa.ca 251 038
cegepadistance.ca 251 068
freelancer.ca 251 133
talentegg.ca 251 135
puzzles.ca 251 528